Track Сибагатов Тимур

Time Latitude Longitude Accuracy (66% radius in meters) Altitude (meters) Speed (km/hour) Bearing (degrees) Battery (%) GPS flag
06:25:07 54.460036 53.523028 0 0 0 0 1 delete
06:25:00 54.460053 53.523059 0 0 0 0 1 delete
06:24:52 54.460107 53.523138 0 0 0 0 1 delete
06:24:50 54.460118 53.523138 0 0 0 0 1 delete
06:24:47 54.460123 53.523242 0 0 0 0 1 delete
06:24:43 54.460133 53.523561 0 0 0 0 1 delete
06:24:39 54.460173 53.523873 0 0 0 0 1 delete
06:24:38 54.460190 53.523961 0 0 0 0 1 delete
06:24:35 54.460189 53.524155 0 0 0 0 1 delete
06:24:32 54.460104 53.524239 0 0 0 0 1 delete
06:24:30 54.460044 53.524305 0 0 0 0 1 delete
06:24:26 54.460073 53.524528 0 0 0 0 1 delete
06:24:22 54.460070 53.524736 0 0 0 0 1 delete
06:24:19 54.459938 53.524832 0 0 0 0 1 delete
06:24:16 54.459797 53.524933 0 0 0 0 1 delete
06:24:13 54.459681 53.525016 0 0 0 0 1 delete
06:24:11 54.459615 53.524922 0 0 0 0 1 delete
06:24:09 54.459525 53.524815 0 0 0 0 1 delete
06:24:05 54.459345 53.524640 0 0 0 0 1 delete
06:24:00 54.459203 53.524442 0 0 0 0 1 delete
06:23:55 54.459191 53.524118 0 0 0 0 1 delete
06:23:53 54.459126 53.524034 0 0 0 0 1 delete
06:23:47 54.459006 53.523858 0 0 0 0 1 delete
06:23:45 54.459003 53.523854 0 0 0 0 1 delete
06:23:40 54.459005 53.523819 0 0 0 0 1 delete
06:23:36 54.459098 53.523667 0 0 0 0 1 delete
06:23:31 54.459159 53.523413 0 0 0 0 1 delete
06:23:27 54.459039 53.523298 0 0 0 0 1 delete
06:23:22 54.458890 53.523311 0 0 0 0 1 delete
06:23:18 54.458830 53.523238 0 0 0 0 1 delete
06:23:14 54.458859 53.523064 0 0 0 0 1 delete
06:23:09 54.458907 53.522795 0 0 0 0 1 delete
06:23:06 54.458894 53.522608 0 0 0 0 1 delete
06:23:05 54.458886 53.522541 0 0 0 0 1 delete
06:23:02 54.458790 53.522379 0 0 0 0 1 delete
06:23:00 54.458691 53.522385 0 0 0 0 1 delete
06:22:55 54.458469 53.522306 0 0 0 0 1 delete
06:22:52 54.458347 53.522171 0 0 0 0 1 delete
06:22:47 54.458121 53.521975 0 0 0 0 1 delete
06:22:46 54.458092 53.521958 0 0 0 0 1 delete
06:22:41 54.458088 53.522135 0 0 0 0 1 delete
06:22:36 54.458099 53.522114 0 0 0 0 1 delete
06:22:33 54.458009 53.521746 0 0 0 0 1 delete
06:22:29 54.457841 53.521349 0 0 0 0 1 delete
06:22:25 54.457661 53.521083 0 0 0 0 1 delete
06:22:21 54.457506 53.520851 0 0 0 0 1 delete
06:22:18 54.457389 53.520672 0 0 0 0 1 delete
06:22:15 54.457509 53.520584 0 0 0 0 1 delete
06:22:11 54.457751 53.520759 0 0 0 0 1 delete
06:22:07 54.458022 53.520866 0 0 0 0 1 delete